Time;durP1;ratioP1;P1;durP2;ratioP2;P2;SDS_P1;SDS_P2;PMS_P1;PMS_P2;Temp;Humidity;BMP_temperature;BMP_pressure;BME280_temperature;BME280_humidity;BME280_pressure;Samples;Min_cycle;Max_cycle;Signal;HPM_P1;HPM_P2
2022/04/09 00:01:21;;;;;;;3.42;2.80;;;;;;;;;;741555;187;926175;-60
2022/04/09 00:03:47;;;;;;;3.73;2.10;;;;;;;;;;750330;187;919029;-60
2022/04/09 00:06:12;;;;;;;4.07;2.17;;;;;;;;;;746828;187;919092;-60
2022/04/09 00:08:38;;;;;;;5.70;2.47;;;;;;;;;;745540;186;918787;-61
2022/04/09 00:11:04;;;;;;;5.70;2.03;;;;;;;;;;746242;185;920313;-60
2022/04/09 00:13:30;;;;;;;2.83;1.70;;;;;;;;;;746167;187;918968;-60
2022/04/09 00:15:56;;;;;;;2.63;1.60;;;;;;;;;;747194;186;919082;-60
2022/04/09 00:18:22;;;;;;;4.40;1.73;;;;;;;;;;749314;186;920150;-61
2022/04/09 00:20:49;;;;;;;2.50;1.70;;;;;;;;;;754461;184;918816;-60
2022/04/09 00:23:13;;;;;;;2.87;1.90;;;;;;;;;;749214;187;920362;-60
2022/04/09 00:25:39;;;;;;;3.30;1.77;;;;;;;;;;751277;185;919173;-60
2022/04/09 00:28:05;;;;;;;3.10;1.67;;;;;;;;;;749552;187;919389;-61
2022/04/09 00:30:31;;;;;;;2.77;2.17;;;;;;;;;;743324;187;919209;-61
2022/04/09 00:32:57;;;;;;;3.37;2.20;;;;;;;;;;746928;187;920366;-61
2022/04/09 00:35:23;;;;;;;3.80;2.10;;;;;;;;;;754228;186;817876;-60
2022/04/09 00:37:48;;;;;;;3.13;2.03;;;;;;;;;;743319;185;920883;-61
2022/04/09 00:40:14;;;;;;;2.97;2.07;;;;;;;;;;743532;185;919745;-60
2022/04/09 00:42:40;;;;;;;3.63;2.23;;;;;;;;;;744637;186;919397;-61
2022/04/09 00:45:08;;;;;;;5.50;1.97;;;;;;;;;;749782;188;921326;-60
2022/04/09 00:47:32;;;;;;;5.62;2.17;;;;;;;;;;744399;187;919469;-59
2022/04/09 00:49:58;;;;;;;5.50;2.75;;;;;;;;;;743645;184;921989;-60
2022/04/09 00:52:25;;;;;;;5.80;1.80;;;;;;;;;;747448;187;919826;-59
2022/04/09 00:54:50;;;;;;;4.77;2.10;;;;;;;;;;716504;194;919285;-60
2022/04/09 00:57:16;;;;;;;4.27;2.30;;;;;;;;;;710290;191;919055;-60
2022/04/09 00:59:42;;;;;;;3.13;2.27;;;;;;;;;;739835;187;927684;-60
2022/04/09 01:02:08;;;;;;;4.60;2.40;;;;;;;;;;741860;187;1021694;-60
2022/04/09 01:04:33;;;;;;;6.30;1.90;;;;;;;;;;750120;185;918631;-61
2022/04/09 01:06:59;;;;;;;3.87;2.40;;;;;;;;;;744289;184;919943;-60
2022/04/09 01:09:25;;;;;;;2.70;1.73;;;;;;;;;;754016;182;910728;-61
2022/04/09 01:11:52;;;;;;;3.83;2.00;;;;;;;;;;741076;184;920068;-60
2022/04/09 01:14:18;;;;;;;4.78;2.03;;;;;;;;;;740359;188;919629;-60
2022/04/09 01:16:44;;;;;;;3.37;2.30;;;;;;;;;;748896;186;919068;-60
2022/04/09 01:19:09;;;;;;;3.10;2.07;;;;;;;;;;749501;184;918829;-60
2022/04/09 01:21:35;;;;;;;2.70;1.63;;;;;;;;;;749493;183;922151;-61
2022/04/09 01:24:01;;;;;;;4.10;1.87;;;;;;;;;;751814;186;918784;-60
2022/04/09 01:26:27;;;;;;;4.75;2.60;;;;;;;;;;745817;186;919519;-62
2022/04/09 01:28:53;;;;;;;4.23;2.33;;;;;;;;;;743921;187;918091;-60
2022/04/09 01:31:19;;;;;;;3.77;2.37;;;;;;;;;;742900;187;919580;-60
2022/04/09 01:33:44;;;;;;;5.40;2.53;;;;;;;;;;749416;185;916075;-62
2022/04/09 01:36:10;;;;;;;2.63;1.70;;;;;;;;;;742325;185;917553;-60
2022/04/09 01:38:36;;;;;;;3.73;1.93;;;;;;;;;;743793;185;916028;-61
2022/04/09 01:41:02;;;;;;;3.57;2.00;;;;;;;;;;747594;185;914890;-60
2022/04/09 01:43:28;;;;;;;4.40;1.93;;;;;;;;;;739728;186;915842;-60
2022/04/09 01:45:54;;;;;;;3.17;2.03;;;;;;;;;;742015;185;921090;-60
2022/04/09 01:48:19;;;;;;;3.53;1.93;;;;;;;;;;754139;184;916664;-60
2022/04/09 01:50:46;;;;;;;3.13;1.77;;;;;;;;;;751328;185;919438;-60
2022/04/09 01:53:11;;;;;;;3.50;2.17;;;;;;;;;;742885;187;912035;-60
2022/04/09 01:55:38;;;;;;;3.22;1.62;;;;;;;;;;742568;189;918084;-60
2022/04/09 01:58:04;;;;;;;2.70;1.73;;;;;;;;;;747687;187;919455;-60
2022/04/09 02:00:29;;;;;;;2.27;1.60;;;;;;;;;;755155;184;625944;-61
2022/04/09 02:02:55;;;;;;;2.72;1.85;;;;;;;;;;742908;185;914060;-60
2022/04/09 02:05:21;;;;;;;5.43;2.23;;;;;;;;;;744675;188;1004164;-60
2022/04/09 02:07:47;;;;;;;2.50;1.80;;;;;;;;;;723344;191;913511;-60
2022/04/09 02:10:13;;;;;;;2.50;1.80;;;;;;;;;;723396;190;914235;-60
2022/04/09 02:12:39;;;;;;;3.03;1.60;;;;;;;;;;730426;190;914010;-61
2022/04/09 02:15:05;;;;;;;3.03;1.90;;;;;;;;;;741199;188;916899;-60
2022/04/09 02:17:32;;;;;;;3.60;1.80;;;;;;;;;;738570;187;913601;-60
2022/04/09 02:19:58;;;;;;;7.72;2.10;;;;;;;;;;740618;186;913590;-59
2022/04/09 02:22:24;;;;;;;5.70;2.30;;;;;;;;;;749900;187;910141;-60
2022/04/09 02:24:50;;;;;;;3.60;1.87;;;;;;;;;;750176;185;912617;-60
2022/04/09 02:27:16;;;;;;;5.00;2.00;;;;;;;;;;741873;187;913453;-61
2022/04/09 02:29:42;;;;;;;3.57;2.47;;;;;;;;;;745365;187;912097;-61
2022/04/09 02:32:08;;;;;;;3.13;1.87;;;;;;;;;;715980;193;912863;-61
2022/04/09 02:34:34;;;;;;;2.75;1.98;;;;;;;;;;744862;186;1015437;-60
2022/04/09 02:37:01;;;;;;;5.00;1.80;;;;;;;;;;756362;184;912596;-60
2022/04/09 02:39:25;;;;;;;3.73;2.30;;;;;;;;;;748037;186;914314;-60
2022/04/09 02:41:51;;;;;;;3.40;1.80;;;;;;;;;;749123;185;912455;-60
2022/04/09 02:44:18;;;;;;;3.00;1.90;;;;;;;;;;748191;184;912463;-60
2022/04/09 02:46:44;;;;;;;3.00;1.87;;;;;;;;;;742087;185;919250;-60
2022/04/09 02:49:09;;;;;;;2.53;1.63;;;;;;;;;;743965;186;919840;-60
2022/04/09 02:51:35;;;;;;;3.20;2.05;;;;;;;;;;740132;185;912814;-60
2022/04/09 02:54:01;;;;;;;3.00;2.17;;;;;;;;;;750541;184;911510;-60
2022/04/09 02:56:27;;;;;;;3.47;1.90;;;;;;;;;;746935;186;912970;-60
2022/04/09 02:58:53;;;;;;;2.90;1.90;;;;;;;;;;741711;186;920050;-60
2022/04/09 03:01:18;;;;;;;3.50;2.10;;;;;;;;;;749980;185;920311;-60
2022/04/09 03:03:44;;;;;;;2.63;1.90;;;;;;;;;;746848;186;920390;-60
2022/04/09 03:06:10;;;;;;;3.03;1.83;;;;;;;;;;745911;185;919012;-61
2022/04/09 03:08:36;;;;;;;5.50;2.73;;;;;;;;;;744598;186;920753;-61
2022/04/09 03:11:02;;;;;;;4.60;2.57;;;;;;;;;;739955;184;915398;-61
2022/04/09 03:13:28;;;;;;;2.33;1.50;;;;;;;;;;740600;184;916392;-60
2022/04/09 03:15:53;;;;;;;2.93;1.80;;;;;;;;;;739641;184;919490;-61
2022/04/09 03:18:19;;;;;;;2.63;1.80;;;;;;;;;;750070;183;916649;-60
2022/04/09 03:20:45;;;;;;;4.10;2.10;;;;;;;;;;740392;185;915640;-61
2022/04/09 03:23:11;;;;;;;3.20;1.63;;;;;;;;;;740279;184;915701;-60
2022/04/09 03:25:37;;;;;;;2.70;1.40;;;;;;;;;;745113;185;919766;-61
2022/04/09 03:28:03;;;;;;;2.37;1.47;;;;;;;;;;742160;186;916785;-61
2022/04/09 03:30:28;;;;;;;2.97;1.40;;;;;;;;;;739477;184;1018323;-61
2022/04/09 03:32:54;;;;;;;2.50;1.13;;;;;;;;;;746739;184;916511;-61
2022/04/09 03:35:20;;;;;;;2.57;1.40;;;;;;;;;;743416;186;920674;-61
2022/04/09 03:37:46;;;;;;;3.03;1.50;;;;;;;;;;744132;184;919582;-60
2022/04/09 03:40:13;;;;;;;3.83;1.73;;;;;;;;;;749702;184;919799;-61
2022/04/09 03:42:38;;;;;;;2.10;1.20;;;;;;;;;;744574;186;919147;-61
2022/04/09 03:45:04;;;;;;;2.53;1.20;;;;;;;;;;748518;184;920763;-61
2022/04/09 03:47:31;;;;;;;1.90;1.10;;;;;;;;;;746620;185;919915;-61
2022/04/09 03:49:56;;;;;;;2.10;1.30;;;;;;;;;;749882;185;920049;-61
2022/04/09 03:52:22;;;;;;;7.40;1.83;;;;;;;;;;746775;186;918822;-60
2022/04/09 03:54:48;;;;;;;3.60;1.23;;;;;;;;;;742202;187;919318;-60
2022/04/09 03:57:14;;;;;;;11.63;1.50;;;;;;;;;;748311;187;918972;-60
2022/04/09 03:59:40;;;;;;;3.07;1.50;;;;;;;;;;747062;185;919428;-60
2022/04/09 04:02:06;;;;;;;2.97;1.20;;;;;;;;;;743679;186;919998;-64
2022/04/09 04:04:32;;;;;;;2.93;1.60;;;;;;;;;;749322;186;937554;-60
2022/04/09 04:06:57;;;;;;;2.80;1.50;;;;;;;;;;740216;187;919153;-59
2022/04/09 04:09:23;;;;;;;2.47;1.33;;;;;;;;;;745674;186;919662;-60
2022/04/09 04:11:49;;;;;;;2.30;1.23;;;;;;;;;;743054;185;1123042;-61
2022/04/09 04:14:15;;;;;;;2.75;1.50;;;;;;;;;;751713;186;916406;-61
2022/04/09 04:16:41;;;;;;;2.57;1.17;;;;;;;;;;746590;184;919844;-62
2022/04/09 04:19:07;;;;;;;3.10;1.40;;;;;;;;;;744103;184;918652;-61
2022/04/09 04:21:32;;;;;;;2.57;1.50;;;;;;;;;;748285;186;919817;-60
2022/04/09 04:23:58;;;;;;;2.67;1.47;;;;;;;;;;743883;186;918497;-62
2022/04/09 04:26:24;;;;;;;6.63;1.77;;;;;;;;;;743693;185;919115;-61
2022/04/09 04:28:51;;;;;;;3.70;1.60;;;;;;;;;;748834;186;935763;-61
2022/04/09 04:31:16;;;;;;;2.80;1.70;;;;;;;;;;745913;184;920256;-64
2022/04/09 04:33:42;;;;;;;15.57;2.50;;;;;;;;;;744373;186;918324;-61
2022/04/09 04:36:07;;;;;;;15.83;2.50;;;;;;;;;;739922;187;919584;-60
2022/04/09 04:38:33;;;;;;;2.70;1.60;;;;;;;;;;743569;188;919904;-61
2022/04/09 04:41:00;;;;;;;4.23;1.97;;;;;;;;;;743802;184;920025;-60
2022/04/09 04:43:25;;;;;;;2.93;1.70;;;;;;;;;;742687;187;921402;-60
2022/04/09 04:45:51;;;;;;;4.00;1.30;;;;;;;;;;748646;187;919603;-62
2022/04/09 04:48:20;;;;;;;3.33;1.67;;;;;;;;;;743874;185;918392;-63
2022/04/09 04:50:43;;;;;;;4.18;1.42;;;;;;;;;;747444;185;859123;-61
2022/04/09 04:53:08;;;;;;;1.83;1.03;;;;;;;;;;752484;185;885793;-63
2022/04/09 04:55:35;;;;;;;3.60;1.53;;;;;;;;;;748659;185;922190;-62
2022/04/09 04:58:00;;;;;;;3.20;1.47;;;;;;;;;;751624;186;623242;-62
2022/04/09 05:00:27;;;;;;;2.10;1.00;;;;;;;;;;750457;185;1020332;-61
2022/04/09 05:02:53;;;;;;;2.53;1.40;;;;;;;;;;743411;188;697154;-61
2022/04/09 05:05:18;;;;;;;2.50;1.33;;;;;;;;;;744801;185;629300;-62
2022/04/09 05:07:44;;;;;;;3.87;1.62;;;;;;;;;;740752;185;916836;-61
2022/04/09 05:10:10;;;;;;;2.97;1.87;;;;;;;;;;744672;186;918336;-62
2022/04/09 05:12:36;;;;;;;5.80;1.93;;;;;;;;;;744692;186;919839;-60
2022/04/09 05:15:03;;;;;;;3.53;2.60;;;;;;;;;;743359;186;994298;-61
2022/04/09 05:17:29;;;;;;;7.60;3.20;;;;;;;;;;749600;187;816946;-60
2022/04/09 05:19:55;;;;;;;3.43;2.37;;;;;;;;;;745394;187;920476;-61
2022/04/09 05:22:20;;;;;;;6.23;3.50;;;;;;;;;;747644;185;916787;-59
2022/04/09 05:24:46;;;;;;;7.20;3.70;;;;;;;;;;745678;187;916731;-60
2022/04/09 05:27:12;;;;;;;6.67;4.07;;;;;;;;;;747943;187;919640;-62
2022/04/09 05:29:38;;;;;;;3.10;1.83;;;;;;;;;;740979;187;919459;-59
2022/04/09 05:32:05;;;;;;;3.00;1.60;;;;;;;;;;739076;186;919958;-59
2022/04/09 05:34:31;;;;;;;2.80;1.20;;;;;;;;;;746448;185;918727;-62
2022/04/09 05:36:56;;;;;;;1.80;0.90;;;;;;;;;;745018;185;919116;-59
2022/04/09 05:39:22;;;;;;;1.70;0.80;;;;;;;;;;744654;184;986054;-59
2022/04/09 05:41:48;;;;;;;1.90;0.80;;;;;;;;;;749678;185;919384;-59
2022/04/09 05:44:14;;;;;;;6.03;1.00;;;;;;;;;;742758;185;919444;-60
2022/04/09 05:46:40;;;;;;;1.80;0.70;;;;;;;;;;746474;187;919534;-61
2022/04/09 05:49:06;;;;;;;1.87;0.90;;;;;;;;;;748847;187;919068;-59
2022/04/09 05:51:32;;;;;;;3.77;1.87;;;;;;;;;;744335;186;944875;-59
2022/04/09 05:53:59;;;;;;;2.93;1.20;;;;;;;;;;743878;185;920459;-59
2022/04/09 05:56:24;;;;;;;3.63;1.63;;;;;;;;;;742482;185;966624;-60
2022/04/09 05:58:49;;;;;;;11.27;5.50;;;;;;;;;;746366;185;918647;-59
2022/04/09 06:01:15;;;;;;;4.10;2.80;;;;;;;;;;744382;185;918396;-58
2022/04/09 06:03:41;;;;;;;7.00;4.85;;;;;;;;;;743888;187;1020923;-59
2022/04/09 06:06:07;;;;;;;8.30;5.40;;;;;;;;;;748297;186;920156;-59
2022/04/09 06:08:33;;;;;;;6.90;2.90;;;;;;;;;;751358;185;920471;-58
2022/04/09 06:10:59;;;;;;;4.20;2.90;;;;;;;;;;746673;186;920282;-59
2022/04/09 06:13:25;;;;;;;5.20;2.60;;;;;;;;;;745487;187;918087;-59
2022/04/09 06:15:51;;;;;;;2.23;1.23;;;;;;;;;;740031;187;1038257;-59
2022/04/09 06:18:17;;;;;;;3.87;1.57;;;;;;;;;;739215;185;919897;-59
2022/04/09 06:20:42;;;;;;;5.53;2.00;;;;;;;;;;741702;187;919808;-58
2022/04/09 06:23:08;;;;;;;5.18;2.95;;;;;;;;;;750738;185;920307;-59
2022/04/09 06:25:34;;;;;;;12.90;10.03;;;;;;;;;;744513;184;922660;-59
2022/04/09 06:28:00;;;;;;;6.95;5.60;;;;;;;;;;746160;186;919934;-62
2022/04/09 06:30:26;;;;;;;8.30;7.23;;;;;;;;;;750367;187;914335;-60
2022/04/09 06:32:52;;;;;;;4.47;3.27;;;;;;;;;;747962;185;985177;-59
2022/04/09 06:35:18;;;;;;;5.43;2.92;;;;;;;;;;744607;185;1018562;-60
2022/04/09 06:37:43;;;;;;;3.73;2.83;;;;;;;;;;750074;184;934259;-58
2022/04/09 06:40:09;;;;;;;2.60;1.63;;;;;;;;;;744828;184;1003182;-60
2022/04/09 06:42:36;;;;;;;5.13;3.30;;;;;;;;;;745906;187;618856;-62
2022/04/09 06:45:02;;;;;;;2.37;1.67;;;;;;;;;;743584;187;887055;-60
2022/04/09 06:47:28;;;;;;;17.30;12.30;;;;;;;;;;742023;187;798408;-59
2022/04/09 06:49:54;;;;;;;45.90;27.30;;;;;;;;;;741707;187;919846;-59
2022/04/09 06:52:20;;;;;;;64.17;32.93;;;;;;;;;;738813;184;919015;-59
2022/04/09 06:54:46;;;;;;;12.60;6.83;;;;;;;;;;750982;187;919636;-60
2022/04/09 06:57:11;;;;;;;31.92;19.30;;;;;;;;;;750457;184;816118;-63
2022/04/09 06:59:37;;;;;;;18.60;7.60;;;;;;;;;;745254;186;918818;-61
2022/04/09 07:02:03;;;;;;;4.33;2.43;;;;;;;;;;751211;185;701023;-60
2022/04/09 07:04:29;;;;;;;5.80;3.60;;;;;;;;;;746590;184;896476;-60
2022/04/09 07:06:55;;;;;;;3.33;2.57;;;;;;;;;;746922;184;912693;-61
2022/04/09 07:09:21;;;;;;;12.70;5.60;;;;;;;;;;747835;187;626932;-61
2022/04/09 07:11:47;;;;;;;21.07;11.90;;;;;;;;;;741229;185;916289;-61
2022/04/09 07:14:13;;;;;;;25.20;12.03;;;;;;;;;;741815;186;918855;-60
2022/04/09 07:16:39;;;;;;;16.48;8.98;;;;;;;;;;742683;186;918474;-60
2022/04/09 07:19:07;;;;;;;11.03;5.93;;;;;;;;;;747619;183;1036278;-60
2022/04/09 07:21:31;;;;;;;49.57;23.47;;;;;;;;;;743990;184;919862;-59
2022/04/09 07:23:57;;;;;;;18.90;13.03;;;;;;;;;;745125;186;919015;-59
2022/04/09 07:26:24;;;;;;;8.83;3.97;;;;;;;;;;749988;184;917923;-59
2022/04/09 07:28:53;;;;;;;10.20;6.90;;;;;;;;;;745826;185;916415;-59
2022/04/09 07:31:18;;;;;;;5.07;2.60;;;;;;;;;;745168;185;915331;-60
2022/04/09 07:33:44;;;;;;;2.70;1.80;;;;;;;;;;743937;184;916516;-60
2022/04/09 07:36:10;;;;;;;2.87;1.90;;;;;;;;;;746959;186;918954;-60
2022/04/09 07:38:36;;;;;;;2.70;1.87;;;;;;;;;;744894;187;919691;-59
2022/04/09 07:41:02;;;;;;;2.70;1.50;;;;;;;;;;745145;185;919284;-60
2022/04/09 07:43:29;;;;;;;4.17;1.63;;;;;;;;;;750324;185;939000;-59
2022/04/09 07:45:54;;;;;;;5.70;3.27;;;;;;;;;;746063;186;918707;-59
2022/04/09 07:48:20;;;;;;;4.03;2.20;;;;;;;;;;746093;186;919345;-60
2022/04/09 07:50:45;;;;;;;4.47;2.60;;;;;;;;;;747699;187;919305;-59
2022/04/09 07:53:12;;;;;;;3.60;1.80;;;;;;;;;;744270;187;919374;-60
2022/04/09 07:55:37;;;;;;;3.10;2.00;;;;;;;;;;739465;187;918789;-60
2022/04/09 07:58:03;;;;;;;4.33;2.80;;;;;;;;;;744187;185;919203;-60
2022/04/09 08:00:29;;;;;;;3.87;2.23;;;;;;;;;;746000;186;1096846;-60
2022/04/09 08:02:54;;;;;;;5.03;2.80;;;;;;;;;;744002;184;919403;-59
2022/04/09 08:05:20;;;;;;;6.93;3.00;;;;;;;;;;742731;186;918450;-60
2022/04/09 08:07:47;;;;;;;14.05;8.52;;;;;;;;;;749122;184;920309;-61
2022/04/09 08:10:13;;;;;;;8.13;3.43;;;;;;;;;;744929;186;918760;-59
2022/04/09 08:12:38;;;;;;;10.33;5.80;;;;;;;;;;745901;187;922070;-59
2022/04/09 08:15:05;;;;;;;7.63;4.50;;;;;;;;;;742127;184;1117213;-60
2022/04/09 08:17:31;;;;;;;5.30;2.50;;;;;;;;;;742021;187;920419;-59
2022/04/09 08:19:58;;;;;;;4.12;2.85;;;;;;;;;;739878;185;1020933;-61
2022/04/09 08:22:23;;;;;;;8.05;4.70;;;;;;;;;;746892;186;918836;-59
2022/04/09 08:24:49;;;;;;;6.43;3.30;;;;;;;;;;740250;187;918177;-59
2022/04/09 08:27:15;;;;;;;6.73;2.37;;;;;;;;;;740670;184;916849;-59
2022/04/09 08:29:40;;;;;;;6.37;3.90;;;;;;;;;;741165;186;925006;-61
2022/04/09 08:32:06;;;;;;;14.13;10.10;;;;;;;;;;747124;186;918105;-59
2022/04/09 08:34:33;;;;;;;10.40;6.27;;;;;;;;;;743418;184;925813;-59
2022/04/09 08:36:58;;;;;;;6.63;4.53;;;;;;;;;;743695;184;1021568;-59
2022/04/09 08:39:24;;;;;;;6.57;4.80;;;;;;;;;;747479;184;918649;-58
2022/04/09 08:41:50;;;;;;;15.13;6.87;;;;;;;;;;744314;186;919477;-60
2022/04/09 08:44:17;;;;;;;13.23;9.67;;;;;;;;;;744404;186;918161;-59
2022/04/09 08:46:41;;;;;;;10.37;5.33;;;;;;;;;;750603;186;887529;-59
2022/04/09 08:49:07;;;;;;;5.83;3.87;;;;;;;;;;740021;187;918888;-60
2022/04/09 08:51:33;;;;;;;7.33;5.93;;;;;;;;;;743126;184;916235;-58
2022/04/09 08:54:00;;;;;;;7.67;4.70;;;;;;;;;;746177;186;916369;-58
2022/04/09 08:56:25;;;;;;;6.90;4.77;;;;;;;;;;750350;184;919869;-59
2022/04/09 08:58:51;;;;;;;5.47;4.00;;;;;;;;;;746393;184;918644;-60
2022/04/09 09:01:17;;;;;;;14.33;4.30;;;;;;;;;;744721;184;919752;-59
2022/04/09 09:03:43;;;;;;;6.50;5.00;;;;;;;;;;749896;186;919603;-59
2022/04/09 09:06:25;;;;;;;7.20;4.97;;;;;;;;;;742491;186;920098;-59
2022/04/09 09:08:50;;;;;;;5.10;4.17;;;;;;;;;;743036;185;919299;-59
2022/04/09 09:11:16;;;;;;;6.00;4.80;;;;;;;;;;742776;186;1022149;-60
2022/04/09 09:13:46;;;;;;;8.82;4.68;;;;;;;;;;749472;187;925558;-59
2022/04/09 09:16:12;;;;;;;6.17;3.97;;;;;;;;;;745894;186;919084;-59
2022/04/09 09:18:37;;;;;;;6.53;4.80;;;;;;;;;;739845;186;919508;-59
2022/04/09 09:21:03;;;;;;;8.17;4.17;;;;;;;;;;742873;185;918940;-61
2022/04/09 09:23:30;;;;;;;7.73;4.70;;;;;;;;;;750227;185;916657;-59
2022/04/09 09:25:56;;;;;;;31.60;13.33;;;;;;;;;;746529;186;919665;-59
2022/04/09 09:28:23;;;;;;;9.43;6.40;;;;;;;;;;739895;187;919089;-59
2022/04/09 09:30:48;;;;;;;8.77;4.60;;;;;;;;;;744794;187;919521;-59
2022/04/09 09:33:14;;;;;;;7.57;5.10;;;;;;;;;;743509;185;919196;-59
2022/04/09 09:35:46;;;;;;;9.98;7.07;;;;;;;;;;743304;185;918599;-60
2022/04/09 09:38:20;;;;;;;15.93;8.40;;;;;;;;;;743018;186;928990;-59
2022/04/09 09:40:45;;;;;;;14.93;8.57;;;;;;;;;;748147;185;919109;-58
2022/04/09 09:43:13;;;;;;;10.00;5.70;;;;;;;;;;744971;186;919333;-60
2022/04/09 09:45:39;;;;;;;7.07;5.83;;;;;;;;;;740822;184;1004910;-59
2022/04/09 09:48:05;;;;;;;6.97;4.13;;;;;;;;;;745496;185;920061;-58
2022/04/09 09:50:36;;;;;;;7.20;4.27;;;;;;;;;;751499;185;919188;-59
2022/04/09 09:53:03;;;;;;;6.57;5.03;;;;;;;;;;746536;185;918615;-59
2022/04/09 09:55:28;;;;;;;10.67;6.23;;;;;;;;;;746647;185;627109;-59
2022/04/09 09:57:54;;;;;;;7.20;4.90;;;;;;;;;;746929;184;616576;-59
2022/04/09 10:00:20;;;;;;;7.83;6.20;;;;;;;;;;718516;192;919380;-60
2022/04/09 10:02:46;;;;;;;13.60;8.20;;;;;;;;;;733306;185;1055546;-59
2022/04/09 10:05:13;;;;;;;11.17;7.47;;;;;;;;;;744110;184;918683;-58
2022/04/09 10:07:39;;;;;;;11.52;5.35;;;;;;;;;;751896;186;919134;-59
2022/04/09 10:10:03;;;;;;;9.47;5.80;;;;;;;;;;741360;187;933829;-59
2022/04/09 10:12:29;;;;;;;12.30;6.13;;;;;;;;;;748326;185;918722;-59
2022/04/09 10:14:56;;;;;;;10.90;7.80;;;;;;;;;;745907;187;917849;-60
2022/04/09 10:17:22;;;;;;;10.03;7.73;;;;;;;;;;744554;187;918278;-59
2022/04/09 10:19:56;;;;;;;9.00;7.95;;;;;;;;;;742824;186;941236;-58
2022/04/09 10:22:22;;;;;;;8.67;6.53;;;;;;;;;;744733;185;924653;-60
2022/04/09 10:24:48;;;;;;;8.00;5.47;;;;;;;;;;748712;187;920285;-61
2022/04/09 10:27:35;;;;;;;9.63;7.00;;;;;;;;;;743034;184;919468;-60
2022/04/09 10:30:02;;;;;;;8.77;6.80;;;;;;;;;;743884;182;1021083;-59
2022/04/09 10:32:33;;;;;;;9.50;6.50;;;;;;;;;;746083;184;919781;-59
2022/04/09 10:34:59;;;;;;;11.32;8.55;;;;;;;;;;741481;187;919572;-59
2022/04/09 10:37:25;;;;;;;9.90;7.70;;;;;;;;;;750237;185;919308;-59
2022/04/09 10:39:52;;;;;;;8.95;7.70;;;;;;;;;;742096;185;919297;-59
2022/04/09 10:42:22;;;;;;;11.77;8.20;;;;;;;;;;746404;186;635094;-62
2022/04/09 10:44:51;;;;;;;9.90;7.50;;;;;;;;;;750449;185;638928;-59
2022/04/09 10:47:18;;;;;;;11.43;7.70;;;;;;;;;;750011;186;917367;-63
2022/04/09 10:49:45;;;;;;;8.87;7.80;;;;;;;;;;746099;185;917805;-59
2022/04/09 10:52:14;;;;;;;13.37;7.27;;;;;;;;;;742178;185;919695;-59
2022/04/09 10:54:38;;;;;;;10.07;7.37;;;;;;;;;;750312;184;920785;-60
2022/04/09 10:57:07;;;;;;;10.47;7.60;;;;;;;;;;743971;183;920544;-59
2022/04/09 10:59:33;;;;;;;9.20;7.87;;;;;;;;;;746756;185;916442;-59
2022/04/09 11:01:59;;;;;;;11.13;6.93;;;;;;;;;;745401;185;919761;-59
2022/04/09 11:04:42;;;;;;;10.97;7.30;;;;;;;;;;752842;185;918771;-59
2022/04/09 11:07:14;;;;;;;9.53;7.03;;;;;;;;;;750591;186;918876;-59
2022/04/09 11:09:43;;;;;;;9.87;6.80;;;;;;;;;;746033;184;906441;-59
2022/04/09 11:12:09;;;;;;;13.43;6.93;;;;;;;;;;743460;185;920235;-60
2022/04/09 11:14:40;;;;;;;8.90;6.60;;;;;;;;;;743261;186;919377;-59
2022/04/09 11:17:12;;;;;;;8.97;7.60;;;;;;;;;;749861;185;919422;-60
2022/04/09 11:19:38;;;;;;;8.20;6.80;;;;;;;;;;741418;185;918458;-59
2022/04/09 11:22:04;;;;;;;10.07;7.60;;;;;;;;;;741478;187;918682;-60
2022/04/09 11:24:30;;;;;;;9.57;7.93;;;;;;;;;;740226;187;919686;-59
2022/04/09 11:26:56;;;;;;;9.70;8.00;;;;;;;;;;744320;186;921731;-59
2022/04/09 11:29:22;;;;;;;9.13;8.00;;;;;;;;;;745983;186;921714;-59
2022/04/09 11:31:48;;;;;;;10.47;9.23;;;;;;;;;;741066;187;919564;-59
2022/04/09 11:34:14;;;;;;;10.30;7.83;;;;;;;;;;751021;185;713051;-59
2022/04/09 11:36:40;;;;;;;12.63;9.50;;;;;;;;;;744048;187;919690;-60
2022/04/09 11:39:05;;;;;;;9.47;6.93;;;;;;;;;;745656;187;918863;-59
2022/04/09 11:41:31;;;;;;;10.40;6.93;;;;;;;;;;748119;187;1013460;-59
2022/04/09 11:43:57;;;;;;;8.60;6.57;;;;;;;;;;747820;186;840938;-59
2022/04/09 11:46:23;;;;;;;11.70;6.17;;;;;;;;;;743581;187;912474;-59
2022/04/09 11:48:49;;;;;;;10.95;6.35;;;;;;;;;;741577;186;918823;-59
2022/04/09 11:51:17;;;;;;;9.67;5.70;;;;;;;;;;745469;187;919657;-60
2022/04/09 11:53:43;;;;;;;13.30;5.30;;;;;;;;;;744488;185;918687;-60
2022/04/09 11:56:08;;;;;;;18.60;5.27;;;;;;;;;;744499;185;919904;-60
2022/04/09 11:58:35;;;;;;;6.75;4.03;;;;;;;;;;752142;185;918702;-59
2022/04/09 12:01:00;;;;;;;5.90;3.60;;;;;;;;;;742873;185;919442;-59
2022/04/09 12:03:26;;;;;;;6.10;3.87;;;;;;;;;;744443;187;919809;-60
2022/04/09 12:05:52;;;;;;;7.03;4.37;;;;;;;;;;748922;184;918449;-59
2022/04/09 12:08:18;;;;;;;5.63;4.10;;;;;;;;;;742971;187;919653;-60
2022/04/09 12:10:49;;;;;;;6.03;3.87;;;;;;;;;;744735;184;920379;-60
2022/04/09 12:13:15;;;;;;;4.47;3.00;;;;;;;;;;744942;185;918739;-59
2022/04/09 12:15:41;;;;;;;7.33;2.83;;;;;;;;;;749763;187;918886;-59
2022/04/09 12:18:07;;;;;;;5.50;2.37;;;;;;;;;;744770;186;919265;-59
2022/04/09 12:20:34;;;;;;;4.50;2.70;;;;;;;;;;741358;187;1021510;-60
2022/04/09 12:23:00;;;;;;;6.63;4.07;;;;;;;;;;744505;188;920166;-60
2022/04/09 12:25:31;;;;;;;6.60;3.50;;;;;;;;;;744188;186;917065;-59
2022/04/09 12:27:57;;;;;;;4.67;2.50;;;;;;;;;;747882;185;918816;-59
2022/04/09 12:30:23;;;;;;;6.33;2.30;;;;;;;;;;745337;187;919724;-59
2022/04/09 12:32:49;;;;;;;9.53;3.30;;;;;;;;;;748040;185;915695;-60
2022/04/09 12:35:16;;;;;;;6.00;2.97;;;;;;;;;;743313;186;914265;-60
2022/04/09 12:37:42;;;;;;;6.00;2.80;;;;;;;;;;745636;185;915467;-60
2022/04/09 12:40:12;;;;;;;4.17;2.90;;;;;;;;;;750218;185;915147;-62
2022/04/09 12:42:38;;;;;;;5.53;3.80;;;;;;;;;;749825;185;918464;-61
2022/04/09 12:45:08;;;;;;;4.27;2.83;;;;;;;;;;742627;184;919627;-60
2022/04/09 12:47:34;;;;;;;4.45;2.80;;;;;;;;;;745249;185;920295;-61
2022/04/09 12:49:59;;;;;;;5.28;3.05;;;;;;;;;;748264;186;918745;-59
2022/04/09 12:52:25;;;;;;;9.23;3.57;;;;;;;;;;746643;184;918843;-60
2022/04/09 12:54:52;;;;;;;15.87;4.30;;;;;;;;;;746322;184;918672;-60
2022/04/09 12:57:18;;;;;;;5.43;3.03;;;;;;;;;;748540;186;919381;-60
2022/04/09 12:59:45;;;;;;;5.83;2.93;;;;;;;;;;743560;187;919158;-60
2022/04/09 13:02:10;;;;;;;5.93;3.13;;;;;;;;;;743299;186;918821;-60
2022/04/09 13:04:36;;;;;;;6.07;3.60;;;;;;;;;;745185;187;920626;-59
2022/04/09 13:07:01;;;;;;;8.02;3.58;;;;;;;;;;748127;185;918485;-59
2022/04/09 13:09:27;;;;;;;7.10;4.73;;;;;;;;;;743929;187;919506;-60
2022/04/09 13:11:53;;;;;;;8.70;3.97;;;;;;;;;;744700;186;919727;-60
2022/04/09 13:14:19;;;;;;;5.60;3.57;;;;;;;;;;749857;185;917456;-60
2022/04/09 13:16:45;;;;;;;5.07;3.10;;;;;;;;;;748034;185;918544;-60
2022/04/09 13:19:11;;;;;;;3.80;3.10;;;;;;;;;;748793;185;918605;-61
2022/04/09 13:21:36;;;;;;;6.40;4.33;;;;;;;;;;749889;186;919295;-60
2022/04/09 13:24:02;;;;;;;5.87;4.43;;;;;;;;;;745502;185;919019;-60
2022/04/09 13:26:28;;;;;;;8.10;5.05;;;;;;;;;;746061;185;930504;-60
2022/04/09 13:28:54;;;;;;;7.20;4.60;;;;;;;;;;744534;185;920158;-59
2022/04/09 13:31:20;;;;;;;7.50;4.77;;;;;;;;;;751360;184;918483;-60
2022/04/09 13:33:47;;;;;;;6.60;5.00;;;;;;;;;;746385;185;919271;-60
2022/04/09 13:36:12;;;;;;;7.03;5.53;;;;;;;;;;743702;187;919450;-60
2022/04/09 13:38:38;;;;;;;8.05;4.80;;;;;;;;;;750104;184;919788;-60
2022/04/09 13:41:04;;;;;;;9.20;5.90;;;;;;;;;;746714;187;918134;-60
2022/04/09 13:43:30;;;;;;;8.50;4.95;;;;;;;;;;747900;186;920012;-60
2022/04/09 13:45:56;;;;;;;7.80;4.57;;;;;;;;;;747123;187;919178;-60
2022/04/09 13:48:23;;;;;;;5.80;4.03;;;;;;;;;;744747;186;920203;-60
2022/04/09 13:50:48;;;;;;;10.20;4.97;;;;;;;;;;743960;186;919304;-62
2022/04/09 13:53:15;;;;;;;9.70;4.30;;;;;;;;;;745959;185;919545;-60
2022/04/09 13:55:41;;;;;;;5.67;4.13;;;;;;;;;;749595;181;987372;-61
2022/04/09 13:58:05;;;;;;;7.20;4.10;;;;;;;;;;743797;186;918830;-60
2022/04/09 14:00:31;;;;;;;7.43;4.10;;;;;;;;;;739447;185;921125;-62
2022/04/09 14:02:57;;;;;;;3.50;3.10;;;;;;;;;;748255;187;920254;-61
2022/04/09 14:05:23;;;;;;;5.50;3.20;;;;;;;;;;741578;187;918786;-60
2022/04/09 14:07:49;;;;;;;6.07;2.97;;;;;;;;;;746792;186;919196;-61
2022/04/09 14:10:15;;;;;;;5.30;3.40;;;;;;;;;;755062;185;919477;-60
2022/04/09 14:12:41;;;;;;;4.40;3.10;;;;;;;;;;741851;185;921314;-61
2022/04/09 14:15:07;;;;;;;6.93;3.10;;;;;;;;;;741682;188;919726;-60
2022/04/09 14:17:33;;;;;;;4.43;3.47;;;;;;;;;;743882;186;918017;-60
2022/04/09 14:19:59;;;;;;;7.30;4.07;;;;;;;;;;743115;186;917800;-61